createdAt,value
2017-08-26T00:00:25.929Z,0
2017-08-26T00:01:06.403Z,0
2017-08-26T00:01:46.870Z,0
2017-08-26T00:02:27.341Z,0
2017-08-26T00:03:07.803Z,0
2017-08-26T00:03:48.250Z,0
2017-08-26T00:04:28.707Z,0
2017-08-26T00:05:09.163Z,0
2017-08-26T00:05:49.606Z,0
2017-08-26T00:06:30.060Z,0
2017-08-26T00:07:10.518Z,0
2017-08-26T00:07:50.971Z,0
2017-08-26T00:08:31.433Z,0
2017-08-26T00:10:59.342Z,0
2017-08-26T00:11:39.806Z,0
2017-08-26T00:12:20.251Z,0
2017-08-26T00:13:00.706Z,0
2017-08-26T00:13:41.168Z,0
2017-08-26T00:14:21.625Z,0
2017-08-26T00:15:02.080Z,0
2017-08-26T00:15:42.540Z,0
2017-08-26T00:16:23.011Z,0
2017-08-26T00:17:03.455Z,0
2017-08-26T00:17:43.907Z,0
2017-08-26T00:18:24.370Z,0
2017-08-26T00:19:04.827Z,0
2017-08-26T00:19:45.284Z,0
2017-08-26T00:20:25.729Z,0
2017-08-26T00:21:06.192Z,0
2017-08-26T00:21:46.651Z,0
2017-08-26T00:22:27.099Z,0
2017-08-26T00:23:07.552Z,0
2017-08-26T00:23:48.003Z,0
2017-08-26T00:24:28.456Z,0
2017-08-26T00:25:08.902Z,0
2017-08-26T00:25:49.355Z,0
2017-08-26T00:26:29.827Z,0
2017-08-26T00:27:10.283Z,0
2017-08-26T00:27:50.743Z,0
2017-08-26T00:28:31.202Z,0
2017-08-26T00:29:11.658Z,0
2017-08-26T00:29:52.113Z,0
2017-08-26T00:30:32.563Z,0
2017-08-26T00:31:13.021Z,0
2017-08-26T00:31:53.469Z,0
2017-08-26T00:32:33.925Z,0
2017-08-26T00:33:14.381Z,0
2017-08-26T00:33:54.831Z,0
2017-08-26T00:34:35.277Z,0
2017-08-26T00:35:15.734Z,0
2017-08-26T00:35:56.183Z,0
2017-08-26T00:36:36.660Z,0
2017-08-26T00:37:17.101Z,0
2017-08-26T00:37:57.563Z,0
2017-08-26T00:38:38.013Z,0
2017-08-26T00:39:18.472Z,0
2017-08-26T00:39:58.922Z,0
2017-08-26T00:40:39.387Z,0
2017-08-26T00:41:19.848Z,0
2017-08-26T00:42:00.305Z,0
2017-08-26T00:42:40.762Z,0
2017-08-26T00:43:21.215Z,0
2017-08-26T00:44:01.677Z,0
2017-08-26T00:44:42.128Z,0
2017-08-26T00:45:22.589Z,0
2017-08-26T00:46:03.044Z,0
2017-08-26T00:46:43.494Z,0
2017-08-26T00:47:23.950Z,0
2017-08-26T00:48:04.406Z,0
2017-08-26T00:48:44.870Z,0
2017-08-26T00:49:25.318Z,0
2017-08-26T00:50:05.770Z,0
2017-08-26T00:50:46.225Z,0
2017-08-26T00:51:26.681Z,0
2017-08-26T00:52:07.133Z,0
2017-08-26T00:52:47.588Z,0
2017-08-26T00:53:28.034Z,0
2017-08-26T00:54:08.497Z,0
2017-08-26T00:54:48.949Z,0
2017-08-26T00:55:29.402Z,0
2017-08-26T00:56:09.854Z,0
2017-08-26T00:56:50.306Z,0
2017-08-26T00:57:30.765Z,0
2017-08-26T00:58:11.227Z,0
2017-08-26T00:58:51.674Z,0
2017-08-26T00:59:32.134Z,0
2017-08-26T01:00:12.603Z,0
2017-08-26T01:00:53.070Z,0
2017-08-26T01:01:33.528Z,0
2017-08-26T01:02:13.978Z,0
2017-08-26T01:02:54.428Z,0
2017-08-26T01:03:34.878Z,0
2017-08-26T01:04:15.332Z,0
2017-08-26T01:04:55.779Z,0
2017-08-26T01:05:36.251Z,0
2017-08-26T01:06:16.690Z,0
2017-08-26T01:06:57.148Z,0
2017-08-26T01:07:37.602Z,0
2017-08-26T01:08:18.061Z,0
2017-08-26T01:08:58.518Z,0
2017-08-26T01:09:38.977Z,0
2017-08-26T01:10:19.430Z,0
2017-08-26T01:10:59.888Z,0
2017-08-26T01:11:40.349Z,0
2017-08-26T01:12:20.810Z,0
2017-08-26T01:13:01.260Z,0
2017-08-26T01:13:41.721Z,0
2017-08-26T01:14:22.176Z,0
2017-08-26T01:15:02.635Z,0
2017-08-26T01:15:43.091Z,0
2017-08-26T01:16:23.551Z,0
2017-08-26T01:17:04.016Z,0
2017-08-26T01:17:44.476Z,0
2017-08-26T01:18:24.929Z,0
2017-08-26T01:19:05.378Z,0
2017-08-26T01:19:45.837Z,0
2017-08-26T01:20:26.292Z,0
2017-08-26T01:21:06.751Z,0
2017-08-26T01:21:47.217Z,0
2017-08-26T01:22:27.668Z,0
2017-08-26T01:23:08.110Z,0
2017-08-26T01:23:48.567Z,0
2017-08-26T01:24:29.026Z,0
2017-08-26T01:25:09.479Z,0
2017-08-26T01:25:49.945Z,0
2017-08-26T01:26:30.397Z,0
2017-08-26T01:27:10.853Z,0
2017-08-26T01:27:51.317Z,0
2017-08-26T01:28:31.770Z,0
2017-08-26T01:29:12.217Z,0
2017-08-26T01:29:52.676Z,0
2017-08-26T01:30:33.132Z,0
2017-08-26T01:31:13.591Z,0
2017-08-26T01:31:54.043Z,0
2017-08-26T01:32:34.504Z,0
2017-08-26T01:33:14.970Z,0
2017-08-26T01:33:55.423Z,0
2017-08-26T01:34:35.878Z,0
2017-08-26T01:35:16.329Z,0
2017-08-26T01:35:56.846Z,0
2017-08-26T01:36:37.225Z,0
2017-08-26T01:37:17.679Z,0
2017-08-26T01:37:58.135Z,0
2017-08-26T01:38:38.593Z,0
2017-08-26T01:39:19.094Z,0
2017-08-26T01:39:59.546Z,0
2017-08-26T01:40:40.000Z,0
2017-08-26T01:41:20.450Z,0
2017-08-26T01:42:00.904Z,0
2017-08-26T01:42:41.354Z,0
2017-08-26T01:43:21.817Z,0
2017-08-26T01:44:02.267Z,0
2017-08-26T01:44:42.723Z,0
2017-08-26T01:45:23.181Z,0
2017-08-26T01:46:03.635Z,0
2017-08-26T01:46:44.100Z,0
2017-08-26T01:47:24.549Z,0
2017-08-26T01:48:04.997Z,0
2017-08-26T01:48:45.456Z,0
2017-08-26T01:49:25.913Z,0
2017-08-26T01:50:06.374Z,0
2017-08-26T01:50:46.833Z,0
2017-08-26T01:51:27.285Z,0
2017-08-26T01:52:07.744Z,0
2017-08-26T01:52:48.200Z,0
2017-08-26T01:53:28.656Z,0
2017-08-26T01:54:09.117Z,0
2017-08-26T01:54:49.576Z,0
2017-08-26T01:55:30.030Z,0
2017-08-26T01:56:10.478Z,0
2017-08-26T01:56:50.933Z,0
2017-08-26T01:57:31.386Z,0
2017-08-26T01:58:11.842Z,0
2017-08-26T01:58:52.296Z,0
2017-08-26T01:59:32.756Z,0
2017-08-26T02:00:13.215Z,0
2017-08-26T02:00:53.667Z,0
2017-08-26T02:01:34.123Z,0
2017-08-26T02:02:14.567Z,0
2017-08-26T02:02:55.028Z,0
2017-08-26T02:03:35.472Z,0
2017-08-26T02:04:15.921Z,0
2017-08-26T02:04:56.374Z,0
2017-08-26T02:05:36.822Z,0
2017-08-26T02:07:54.761Z,0
2017-08-26T02:08:35.212Z,0
2017-08-26T02:09:15.669Z,0
2017-08-26T02:09:56.123Z,0
2017-08-26T02:10:36.581Z,0
2017-08-26T02:12:54.510Z,0
2017-08-26T02:13:34.953Z,0
2017-08-26T02:14:15.410Z,0
2017-08-26T02:14:55.863Z,0
2017-08-26T02:15:36.330Z,0
2017-08-26T02:16:16.784Z,0
2017-08-26T02:16:57.241Z,0
2017-08-26T02:17:37.704Z,0
2017-08-26T02:18:18.160Z,0
2017-08-26T02:18:58.608Z,0
2017-08-26T02:19:39.071Z,0
2017-08-26T02:20:19.520Z,0
2017-08-26T02:20:59.978Z,0
2017-08-26T02:21:40.434Z,0
2017-08-26T02:22:20.907Z,0
2017-08-26T02:23:01.368Z,0
2017-08-26T02:23:41.804Z,0
2017-08-26T02:24:22.258Z,0
2017-08-26T02:25:02.718Z,0
2017-08-26T02:25:43.172Z,0
2017-08-26T02:26:23.620Z,0
2017-08-26T02:27:04.078Z,0
2017-08-26T02:27:44.528Z,0
2017-08-26T02:28:24.994Z,0
2017-08-26T02:29:05.446Z,0
2017-08-26T02:29:45.895Z,0
2017-08-26T02:30:26.352Z,0
2017-08-26T02:31:06.818Z,0
2017-08-26T02:31:47.273Z,0
2017-08-26T02:32:27.728Z,0
2017-08-26T02:33:08.183Z,0
2017-08-26T02:33:48.641Z,0
2017-08-26T02:34:29.098Z,0
2017-08-26T02:35:09.561Z,0
2017-08-26T02:35:50.016Z,0
2017-08-26T02:36:30.476Z,0
2017-08-26T02:37:10.932Z,0
2017-08-26T02:37:51.396Z,0
2017-08-26T02:38:31.845Z,0
2017-08-26T02:39:12.313Z,0
2017-08-26T02:39:52.776Z,0
2017-08-26T02:40:33.236Z,0
2017-08-26T02:41:13.702Z,0
2017-08-26T02:41:54.157Z,0
2017-08-26T02:42:34.609Z,0
2017-08-26T02:43:15.068Z,0
2017-08-26T02:43:55.517Z,0
2017-08-26T02:44:35.963Z,0
2017-08-26T02:45:16.414Z,0
2017-08-26T02:45:56.977Z,0
2017-08-26T02:46:37.318Z,0
2017-08-26T02:47:17.772Z,0
2017-08-26T02:47:58.229Z,0
2017-08-26T02:48:38.687Z,0
2017-08-26T02:49:19.148Z,0
2017-08-26T02:49:59.598Z,0
2017-08-26T02:50:40.054Z,0
2017-08-26T02:51:20.508Z,0
2017-08-26T02:52:00.963Z,0
2017-08-26T02:52:41.424Z,0
2017-08-26T02:53:21.875Z,0
2017-08-26T02:54:02.328Z,0
2017-08-26T02:54:42.785Z,0
2017-08-26T02:55:23.246Z,0
2017-08-26T02:56:03.697Z,0
2017-08-26T02:56:44.157Z,0
2017-08-26T02:57:24.616Z,0
2017-08-26T02:58:05.083Z,0
2017-08-26T02:58:45.538Z,0
2017-08-26T02:59:25.997Z,0
2017-08-26T03:00:06.460Z,0
2017-08-26T03:00:46.907Z,0
2017-08-26T03:01:27.351Z,0
2017-08-26T03:02:07.802Z,0
2017-08-26T03:02:48.253Z,0
2017-08-26T03:03:28.708Z,0
2017-08-26T03:04:09.162Z,0
2017-08-26T03:04:49.620Z,0
2017-08-26T03:05:30.103Z,0
2017-08-26T03:06:10.557Z,0
2017-08-26T03:06:51.014Z,0
2017-08-26T03:07:31.473Z,0
2017-08-26T03:08:11.930Z,0
2017-08-26T03:08:52.403Z,0
2017-08-26T03:09:32.859Z,0
2017-08-26T03:10:13.317Z,0
2017-08-26T03:10:53.771Z,0
2017-08-26T03:11:34.230Z,0
2017-08-26T03:12:14.683Z,0
2017-08-26T03:12:55.134Z,0
2017-08-26T03:13:35.586Z,0
2017-08-26T03:14:16.048Z,0
2017-08-26T03:14:56.507Z,0
2017-08-26T03:15:36.961Z,0
2017-08-26T03:16:17.446Z,0
2017-08-26T03:16:57.914Z,0
2017-08-26T03:17:38.365Z,0
2017-08-26T03:18:18.826Z,0
2017-08-26T03:18:59.279Z,0
2017-08-26T03:19:39.722Z,0
2017-08-26T03:20:20.185Z,0
2017-08-26T03:21:00.639Z,0
2017-08-26T03:21:41.092Z,0
2017-08-26T03:22:21.544Z,0
2017-08-26T03:23:02.019Z,0
2017-08-26T03:23:42.461Z,0
2017-08-26T03:24:22.911Z,0
2017-08-26T03:25:03.354Z,0
2017-08-26T03:25:43.823Z,0
2017-08-26T03:26:24.270Z,0
2017-08-26T03:27:04.730Z,0
2017-08-26T03:27:45.174Z,0
2017-08-26T03:28:25.623Z,0
2017-08-26T03:29:06.068Z,0
2017-08-26T03:29:46.520Z,0
2017-08-26T03:30:26.970Z,0
2017-08-26T03:31:07.432Z,0
2017-08-26T03:31:47.885Z,0
2017-08-26T03:32:28.342Z,0
2017-08-26T03:33:08.796Z,0
2017-08-26T03:33:49.260Z,0
2017-08-26T03:34:29.719Z,0
2017-08-26T03:35:10.168Z,0
2017-08-26T03:35:50.645Z,0
2017-08-26T03:36:31.100Z,0
2017-08-26T03:37:11.549Z,0
2017-08-26T03:37:52.019Z,0
2017-08-26T03:38:32.477Z,0
2017-08-26T03:39:12.926Z,0
2017-08-26T03:39:53.384Z,0
2017-08-26T03:40:33.843Z,0
2017-08-26T03:41:14.304Z,0
2017-08-26T03:41:54.758Z,0
2017-08-26T03:42:35.198Z,0
2017-08-26T03:43:15.650Z,0
2017-08-26T03:43:56.111Z,0
2017-08-26T03:44:36.572Z,0
2017-08-26T03:45:17.028Z,0
2017-08-26T03:45:57.482Z,0
2017-08-26T03:46:37.929Z,0
2017-08-26T03:47:18.383Z,0
2017-08-26T03:47:58.840Z,0
2017-08-26T03:48:39.295Z,0
2017-08-26T03:49:19.758Z,0
2017-08-26T03:50:00.221Z,0
2017-08-26T03:50:40.676Z,0
2017-08-26T03:51:21.136Z,0
2017-08-26T03:52:01.593Z,0
2017-08-26T03:52:42.061Z,0
2017-08-26T03:53:22.509Z,0
2017-08-26T03:54:02.962Z,0
2017-08-26T03:54:43.414Z,0
2017-08-26T03:55:23.865Z,0
2017-08-26T03:56:04.311Z,0
2017-08-26T03:56:44.775Z,0
2017-08-26T03:57:25.221Z,0
2017-08-26T03:58:05.677Z,0
2017-08-26T03:58:46.141Z,0
2017-08-26T03:59:26.599Z,0
2017-08-26T04:00:07.056Z,0
2017-08-26T04:00:47.512Z,0
2017-08-26T04:01:27.979Z,0
2017-08-26T04:02:08.414Z,0
2017-08-26T04:02:48.866Z,0
2017-08-26T04:03:29.319Z,0
2017-08-26T04:04:09.769Z,0
2017-08-26T04:04:50.218Z,0
2017-08-26T04:05:30.671Z,0
2017-08-26T04:06:11.123Z,0
2017-08-26T04:06:51.571Z,0
2017-08-26T04:07:32.021Z,0
2017-08-26T04:08:12.475Z,0
2017-08-26T04:08:52.931Z,0
2017-08-26T04:09:33.379Z,0
2017-08-26T04:10:13.837Z,0
2017-08-26T04:10:54.297Z,0
2017-08-26T04:11:34.751Z,0
2017-08-26T04:12:15.217Z,0
2017-08-26T04:12:55.676Z,0
2017-08-26T04:13:36.126Z,0
2017-08-26T04:14:16.583Z,0
2017-08-26T04:14:57.068Z,0
2017-08-26T04:15:37.520Z,0
2017-08-26T04:16:17.958Z,0
2017-08-26T04:16:58.397Z,0
2017-08-26T04:17:38.845Z,0
2017-08-26T04:18:19.294Z,0
2017-08-26T04:18:59.734Z,0
2017-08-26T04:19:40.192Z,0
2017-08-26T04:20:20.641Z,0
2017-08-26T04:21:01.082Z,0
2017-08-26T04:21:41.536Z,0
2017-08-26T04:22:21.978Z,0
2017-08-26T04:23:02.436Z,0
2017-08-26T04:23:42.885Z,0
2017-08-26T04:24:23.336Z,0
2017-08-26T04:25:03.797Z,0
2017-08-26T04:25:44.230Z,0
2017-08-26T04:26:24.686Z,0
2017-08-26T04:27:05.141Z,0
2017-08-26T04:27:45.591Z,0
2017-08-26T04:28:26.047Z,0
2017-08-26T04:29:06.507Z,0
2017-08-26T04:29:46.963Z,0
2017-08-26T04:30:27.423Z,0
2017-08-26T04:31:07.886Z,0
2017-08-26T04:31:48.340Z,0
2017-08-26T04:32:28.837Z,0
2017-08-26T04:33:09.262Z,0
2017-08-26T04:33:49.709Z,0
2017-08-26T04:34:30.163Z,0
2017-08-26T04:35:10.612Z,0
2017-08-26T04:35:51.071Z,0
2017-08-26T04:36:31.528Z,0
2017-08-26T04:37:11.988Z,0
2017-08-26T04:37:52.448Z,0
2017-08-26T04:38:32.902Z,0
2017-08-26T04:39:13.356Z,0
2017-08-26T04:39:53.815Z,0
2017-08-26T04:40:34.271Z,0
2017-08-26T04:41:14.728Z,0
2017-08-26T04:41:55.183Z,0
2017-08-26T04:42:35.640Z,0
2017-08-26T04:43:16.088Z,0
2017-08-26T04:43:56.548Z,0
2017-08-26T04:44:37.001Z,0
2017-08-26T04:45:17.439Z,0
2017-08-26T04:45:57.890Z,0
2017-08-26T04:46:38.340Z,0
2017-08-26T04:47:18.784Z,0
2017-08-26T04:47:59.233Z,0
2017-08-26T04:48:39.692Z,0
2017-08-26T04:49:20.149Z,0
2017-08-26T04:50:00.606Z,0
2017-08-26T04:50:41.058Z,0
2017-08-26T04:51:21.563Z,0
2017-08-26T04:52:01.993Z,0
2017-08-26T04:52:42.454Z,0
2017-08-26T04:53:22.900Z,0
2017-08-26T04:54:03.353Z,0
2017-08-26T04:54:43.814Z,0
2017-08-26T04:55:24.263Z,0
2017-08-26T04:56:04.715Z,0
2017-08-26T04:56:45.166Z,4
2017-08-26T04:57:25.627Z,4
2017-08-26T04:58:06.076Z,4
2017-08-26T04:58:46.537Z,4
2017-08-26T04:59:27.003Z,4
2017-08-26T05:00:07.453Z,4
2017-08-26T05:00:47.908Z,4
2017-08-26T05:01:28.362Z,4
2017-08-26T05:02:08.819Z,4
2017-08-26T05:02:49.280Z,4
2017-08-26T05:03:29.745Z,0
2017-08-26T05:04:10.193Z,0
2017-08-26T05:04:50.646Z,0
2017-08-26T05:05:31.103Z,0
2017-08-26T05:06:11.560Z,0
2017-08-26T05:06:52.010Z,0
2017-08-26T05:07:32.525Z,0
2017-08-26T05:08:12.988Z,0
2017-08-26T05:08:53.430Z,0
2017-08-26T05:09:33.896Z,0
2017-08-26T05:10:14.357Z,0
2017-08-26T05:10:54.812Z,0
2017-08-26T05:11:35.289Z,0
2017-08-26T05:12:15.716Z,0
2017-08-26T05:12:56.160Z,0
2017-08-26T05:13:36.621Z,0
2017-08-26T05:14:17.081Z,0
2017-08-26T05:14:57.537Z,0
2017-08-26T05:15:38.017Z,0
2017-08-26T05:16:18.464Z,0
2017-08-26T05:16:58.913Z,0
2017-08-26T05:17:39.367Z,0
2017-08-26T05:18:19.822Z,4
2017-08-26T05:19:00.272Z,4
2017-08-26T05:19:40.737Z,4
2017-08-26T05:20:21.195Z,4
2017-08-26T05:21:01.653Z,4
2017-08-26T05:21:42.117Z,4
2017-08-26T05:22:22.576Z,4
2017-08-26T05:23:03.033Z,4
2017-08-26T05:23:43.484Z,4
2017-08-26T05:24:23.948Z,4
2017-08-26T05:25:04.403Z,4
2017-08-26T05:25:44.862Z,4
2017-08-26T05:26:25.314Z,0
2017-08-26T05:27:05.773Z,0
2017-08-26T05:27:46.241Z,0
2017-08-26T05:28:26.714Z,4
2017-08-26T05:29:07.162Z,4
2017-08-26T05:29:47.623Z,0
2017-08-26T05:30:28.085Z,0
2017-08-26T05:31:08.530Z,0
2017-08-26T05:31:48.989Z,0
2017-08-26T05:32:29.440Z,4
2017-08-26T05:33:09.893Z,4
2017-08-26T05:33:50.354Z,4
2017-08-26T05:34:30.806Z,4
2017-08-26T05:35:11.258Z,4
2017-08-26T05:35:51.709Z,4
2017-08-26T05:36:32.158Z,4
2017-08-26T05:37:12.642Z,4
2017-08-26T05:37:53.093Z,4
2017-08-26T05:38:33.547Z,0
2017-08-26T05:39:14.017Z,4
2017-08-26T05:39:54.461Z,4
2017-08-26T05:40:34.916Z,4
2017-08-26T05:41:15.378Z,4
2017-08-26T05:41:55.831Z,4
2017-08-26T05:42:36.296Z,4
2017-08-26T05:43:16.752Z,4
2017-08-26T05:43:57.285Z,4
2017-08-26T05:44:37.709Z,4
2017-08-26T05:45:18.153Z,8
2017-08-26T05:45:58.600Z,4
2017-08-26T05:46:39.053Z,4
2017-08-26T05:47:19.507Z,4
2017-08-26T05:47:59.952Z,4
2017-08-26T05:48:40.405Z,4
2017-08-26T05:49:20.859Z,4
2017-08-26T05:50:01.306Z,8
2017-08-26T05:50:41.776Z,8
2017-08-26T05:51:22.249Z,4
2017-08-26T05:52:02.706Z,4
2017-08-26T05:52:43.168Z,4
2017-08-26T05:53:23.627Z,8
2017-08-26T05:54:04.068Z,8
2017-08-26T05:54:44.519Z,8
2017-08-26T05:55:24.981Z,8
2017-08-26T05:56:05.419Z,8
2017-08-26T05:56:45.881Z,8
2017-08-26T05:57:26.335Z,8
2017-08-26T05:58:06.789Z,8
2017-08-26T05:58:47.235Z,8
2017-08-26T05:59:27.695Z,8
2017-08-26T06:00:08.161Z,4
2017-08-26T06:00:49.102Z,8
2017-08-26T06:01:29.547Z,8
2017-08-26T06:02:10.412Z,8
2017-08-26T06:02:50.838Z,8
2017-08-26T06:03:31.289Z,8
2017-08-26T06:04:11.745Z,8
2017-08-26T06:04:52.205Z,8
2017-08-26T06:05:32.639Z,8
2017-08-26T06:06:13.087Z,8
2017-08-26T06:06:53.527Z,8
2017-08-26T06:07:33.973Z,8
2017-08-26T06:08:14.430Z,8
2017-08-26T06:08:54.889Z,8
2017-08-26T06:09:35.349Z,8
2017-08-26T06:10:15.807Z,8
2017-08-26T06:10:56.274Z,8
2017-08-26T06:11:36.732Z,8
2017-08-26T06:12:17.194Z,12
2017-08-26T06:12:57.656Z,8
2017-08-26T06:13:38.101Z,12
2017-08-26T06:14:18.567Z,12
2017-08-26T06:14:59.017Z,12
2017-08-26T06:15:39.513Z,12
2017-08-26T06:16:19.965Z,12
2017-08-26T06:17:00.425Z,8
2017-08-26T06:17:40.895Z,8
2017-08-26T06:18:21.351Z,8
2017-08-26T06:19:01.815Z,12
2017-08-26T06:19:42.271Z,12
2017-08-26T06:20:22.740Z,8
2017-08-26T06:21:03.188Z,8
2017-08-26T06:21:43.671Z,12
2017-08-26T06:22:24.120Z,12
2017-08-26T06:23:04.601Z,8
2017-08-26T06:23:45.040Z,12
2017-08-26T06:24:25.494Z,12
2017-08-26T06:25:05.946Z,12
2017-08-26T06:25:46.396Z,12
2017-08-26T06:26:26.853Z,12
2017-08-26T06:27:07.312Z,12
2017-08-26T06:27:47.762Z,12
2017-08-26T06:28:28.218Z,12
2017-08-26T06:29:08.687Z,12
2017-08-26T06:29:49.150Z,16
2017-08-26T06:30:29.623Z,12
2017-08-26T06:31:10.076Z,12
2017-08-26T06:31:50.530Z,12
2017-08-26T06:32:30.990Z,12
2017-08-26T06:33:11.448Z,12
2017-08-26T06:33:51.906Z,16
2017-08-26T06:34:32.368Z,12
2017-08-26T06:35:12.823Z,12
2017-08-26T06:35:53.276Z,12
2017-08-26T06:36:33.758Z,16
2017-08-26T06:37:14.192Z,16
2017-08-26T06:37:54.646Z,16
2017-08-26T06:38:35.110Z,16
2017-08-26T06:39:15.554Z,16
2017-08-26T06:39:56.002Z,16
2017-08-26T06:40:36.455Z,12
2017-08-26T06:41:16.904Z,16
2017-08-26T06:41:57.409Z,16
2017-08-26T06:42:37.894Z,16
2017-08-26T06:43:18.365Z,12
2017-08-26T06:43:58.809Z,16
2017-08-26T06:44:39.271Z,16
2017-08-26T06:45:19.718Z,16
2017-08-26T06:46:00.175Z,16
2017-08-26T06:46:40.630Z,16
2017-08-26T06:47:21.087Z,16
2017-08-26T06:48:01.537Z,16
2017-08-26T06:48:41.971Z,16
2017-08-26T06:49:22.417Z,16
2017-08-26T06:50:02.883Z,16
2017-08-26T06:50:43.413Z,16
2017-08-26T06:51:23.798Z,20
2017-08-26T06:52:04.258Z,20
2017-08-26T06:52:44.737Z,20
2017-08-26T06:53:25.185Z,16
2017-08-26T06:54:05.634Z,16
2017-08-26T06:54:46.092Z,20
2017-08-26T06:55:26.552Z,20
2017-08-26T06:56:07.006Z,20
2017-08-26T06:56:47.463Z,16
2017-08-26T06:57:27.936Z,16
2017-08-26T06:58:08.391Z,20
2017-08-26T06:58:48.849Z,20
2017-08-26T06:59:29.311Z,16
2017-08-26T07:00:09.763Z,20
2017-08-26T07:00:50.219Z,16
2017-08-26T07:01:30.666Z,20
2017-08-26T07:02:11.125Z,20
2017-08-26T07:02:51.579Z,20
2017-08-26T07:03:32.032Z,20
2017-08-26T07:04:12.511Z,20
2017-08-26T07:04:52.982Z,20
2017-08-26T07:05:33.432Z,20
2017-08-26T07:06:13.899Z,16
2017-08-26T07:06:54.476Z,24
2017-08-26T07:07:34.905Z,24
2017-08-26T07:08:15.349Z,24
2017-08-26T07:08:55.797Z,1384
2017-08-26T07:09:36.227Z,1412
2017-08-26T07:10:16.670Z,2696
2017-08-26T07:10:57.136Z,2788
2017-08-26T07:11:37.568Z,2804
2017-08-26T07:12:18.021Z,2856
2017-08-26T07:12:58.477Z,2876
2017-08-26T07:13:38.934Z,1100
2017-08-26T07:14:19.393Z,1476
2017-08-26T07:14:59.855Z,1500
2017-08-26T07:15:40.338Z,1524
2017-08-26T07:16:20.784Z,1528
2017-08-26T07:17:01.240Z,1528
2017-08-26T07:17:41.702Z,1524
2017-08-26T07:18:22.167Z,1536
2017-08-26T07:19:02.644Z,1568
2017-08-26T07:19:43.075Z,1604
2017-08-26T07:20:23.519Z,1628
2017-08-26T07:21:03.980Z,1644
2017-08-26T07:21:44.439Z,1660
2017-08-26T07:22:24.897Z,1680
2017-08-26T07:23:05.334Z,1708
2017-08-26T07:23:45.799Z,1736
2017-08-26T07:24:26.260Z,1760
2017-08-26T07:25:06.727Z,1772
2017-08-26T07:25:47.189Z,1784
2017-08-26T07:26:27.659Z,1808
2017-08-26T07:27:08.104Z,1832
2017-08-26T07:27:48.571Z,1860
2017-08-26T07:28:29.027Z,1872
2017-08-26T07:29:09.461Z,1896
2017-08-26T07:29:49.912Z,1908
2017-08-26T07:30:30.323Z,1884
2017-08-26T07:31:10.795Z,1860
2017-08-26T07:31:51.254Z,1872
2017-08-26T07:32:31.725Z,1852
2017-08-26T07:33:12.173Z,1828
2017-08-26T07:33:52.634Z,1788
2017-08-26T07:34:33.075Z,1808
2017-08-26T07:35:13.508Z,1804
2017-08-26T07:35:53.960Z,1820
2017-08-26T07:36:34.419Z,1828
2017-08-26T07:37:14.846Z,1888
2017-08-26T07:37:55.304Z,1888
2017-08-26T07:38:35.758Z,1984
2017-08-26T07:39:16.216Z,2036
2017-08-26T07:39:56.697Z,2048
2017-08-26T07:40:37.159Z,2104
2017-08-26T07:41:17.712Z,2108
2017-08-26T07:41:58.189Z,2116
2017-08-26T07:42:38.630Z,2144
2017-08-26T07:43:19.074Z,2124
2017-08-26T07:43:59.520Z,2112
2017-08-26T07:44:39.974Z,2128
2017-08-26T07:45:20.417Z,2164
2017-08-26T07:46:00.844Z,2200
2017-08-26T07:46:41.291Z,2216
2017-08-26T07:47:21.751Z,2224
2017-08-26T07:48:02.224Z,2184
2017-08-26T07:48:42.651Z,2168
2017-08-26T07:49:23.121Z,2264
2017-08-26T07:51:51.119Z,2124
2017-08-26T07:52:31.592Z,2240
2017-08-26T07:53:12.047Z,2340
2017-08-26T07:53:52.507Z,2344
2017-08-26T07:54:32.968Z,2384
2017-08-26T07:55:13.427Z,2384
2017-08-26T07:55:53.865Z,2424
2017-08-26T07:56:34.316Z,2468
2017-08-26T07:57:14.770Z,2476
2017-08-26T07:57:55.213Z,2456
2017-08-26T07:58:35.659Z,2424
2017-08-26T07:59:16.107Z,2432
2017-08-26T07:59:56.571Z,2528
2017-08-26T08:00:37.024Z,2496
2017-08-26T08:01:17.457Z,2528
2017-08-26T08:01:57.910Z,2004
2017-08-26T08:02:38.368Z,1704
2017-08-26T08:03:18.806Z,1728
2017-08-26T08:03:59.247Z,1684
2017-08-26T08:04:39.716Z,2136
2017-08-26T08:05:20.145Z,1516
2017-08-26T08:06:00.588Z,1412
2017-08-26T08:06:41.025Z,1328
2017-08-26T08:07:21.485Z,1288
2017-08-26T08:08:01.947Z,1280
2017-08-26T08:08:42.406Z,1296
2017-08-26T08:09:23.722Z,1324
2017-08-26T08:10:04.176Z,1532
2017-08-26T08:10:44.644Z,1288
2017-08-26T08:11:25.104Z,1216
2017-08-26T08:12:05.547Z,1212
2017-08-26T08:12:46.018Z,1228
2017-08-26T08:13:26.454Z,1260
2017-08-26T08:15:59.522Z,1568
2017-08-26T08:16:39.975Z,1668
2017-08-26T08:17:20.418Z,2536
2017-08-26T08:18:00.875Z,1656
2017-08-26T08:18:41.352Z,1800
2017-08-26T08:19:21.801Z,1424
2017-08-26T08:20:02.247Z,1408
2017-08-26T08:20:42.678Z,1756
2017-08-26T08:21:23.120Z,1684
2017-08-26T08:22:03.571Z,2096
2017-08-26T08:22:44.024Z,1684
2017-08-26T08:23:24.462Z,2904
2017-08-26T08:24:04.919Z,2740
2017-08-26T08:24:45.350Z,2516
2017-08-26T08:25:25.844Z,2168
2017-08-26T08:26:06.281Z,1676
2017-08-26T08:26:46.706Z,2608
2017-08-26T08:27:27.125Z,1780
2017-08-26T08:28:07.544Z,1980
2017-08-26T08:28:47.963Z,3016
2017-08-26T08:31:05.858Z,2220
2017-08-26T08:31:46.318Z,1848
2017-08-26T08:32:26.768Z,2472
2017-08-26T08:33:07.240Z,1940
2017-08-26T08:33:47.691Z,1952
2017-08-26T08:34:28.206Z,1692
2017-08-26T08:35:08.656Z,1688
2017-08-26T08:35:49.214Z,1752
2017-08-26T08:36:29.640Z,2020
2017-08-26T08:37:10.085Z,1848
2017-08-26T08:37:50.506Z,1884
2017-08-26T08:38:30.914Z,2936
2017-08-26T08:39:11.353Z,2696
2017-08-26T08:39:51.781Z,2308
2017-08-26T08:40:32.193Z,1544
2017-08-26T08:41:12.674Z,2548
2017-08-26T08:41:53.123Z,1556
2017-08-26T08:42:33.556Z,1632
2017-08-26T08:43:13.939Z,3132
2017-08-26T08:43:54.356Z,3168
2017-08-26T08:44:34.760Z,3164
2017-08-26T08:45:15.186Z,2776
2017-08-26T08:45:55.595Z,2408
2017-08-26T08:46:36.013Z,2832
2017-08-26T08:47:16.457Z,3076
2017-08-26T08:47:56.869Z,2564
2017-08-26T08:48:37.261Z,3124
2017-08-26T08:49:17.698Z,3148
2017-08-26T08:49:58.146Z,3176
2017-08-26T08:50:38.603Z,3148
2017-08-26T08:51:19.059Z,3124
2017-08-26T08:51:59.508Z,3184
2017-08-26T08:52:39.945Z,3152
2017-08-26T08:53:20.419Z,3140
2017-08-26T08:54:00.875Z,3136
2017-08-26T08:54:41.323Z,3148
2017-08-26T08:55:21.778Z,3144
2017-08-26T08:56:02.230Z,3140
2017-08-26T08:56:42.680Z,3180
2017-08-26T08:57:23.116Z,3192
2017-08-26T08:58:03.577Z,3232
2017-08-26T08:58:44.028Z,3268
2017-08-26T08:59:24.479Z,3300
2017-08-26T09:00:04.927Z,3324
2017-08-26T09:00:45.389Z,3320
2017-08-26T09:01:25.855Z,3336
2017-08-26T09:02:06.312Z,3340
2017-08-26T09:02:46.807Z,3364
2017-08-26T09:03:27.300Z,3372
2017-08-26T09:04:07.712Z,3376
2017-08-26T09:04:48.169Z,3388
2017-08-26T09:05:28.620Z,3404
2017-08-26T09:06:09.061Z,3416
2017-08-26T09:06:49.511Z,3416
2017-08-26T09:07:29.956Z,3428
2017-08-26T09:08:10.410Z,3448
2017-08-26T09:08:50.886Z,3452
2017-08-26T09:09:31.308Z,3432
2017-08-26T09:10:11.765Z,3424
2017-08-26T09:10:52.219Z,3448
2017-08-26T09:11:32.670Z,3400
2017-08-26T09:12:13.115Z,3412
2017-08-26T09:12:53.564Z,3428
2017-08-26T09:13:34.019Z,3436
2017-08-26T09:14:14.479Z,3456
2017-08-26T09:14:54.932Z,3464
2017-08-26T09:15:35.394Z,3516
2017-08-26T09:16:15.835Z,3528
2017-08-26T09:16:56.289Z,3440
2017-08-26T09:17:36.752Z,3532
2017-08-26T09:18:17.199Z,3524
2017-08-26T09:18:57.657Z,3528
2017-08-26T09:19:38.105Z,3516
2017-08-26T09:20:18.558Z,3560
2017-08-26T09:20:59.003Z,3544
2017-08-26T09:21:39.444Z,3548
2017-08-26T09:22:19.934Z,3504
2017-08-26T09:23:00.367Z,3540
2017-08-26T09:23:40.817Z,3536
2017-08-26T09:24:21.271Z,3552
2017-08-26T09:25:01.732Z,3528
2017-08-26T09:25:42.207Z,3520
2017-08-26T09:26:22.644Z,3536
2017-08-26T09:27:03.073Z,3528
2017-08-26T09:27:43.479Z,3560
2017-08-26T09:28:23.901Z,3628
2017-08-26T09:29:04.269Z,3508
2017-08-26T09:29:44.673Z,3072
2017-08-26T09:30:25.101Z,2552
2017-08-26T09:31:05.492Z,2504
2017-08-26T09:31:45.928Z,2388
2017-08-26T09:32:26.385Z,3420
2017-08-26T09:33:06.835Z,3640
2017-08-26T09:33:47.297Z,2852
2017-08-26T09:34:27.747Z,3392
2017-08-26T09:35:08.176Z,3956
2017-08-26T09:35:48.637Z,2448
2017-08-26T09:36:29.081Z,1904
2017-08-26T09:37:09.539Z,2016
2017-08-26T09:37:49.986Z,2012
2017-08-26T09:38:30.410Z,3288
2017-08-26T09:39:10.849Z,2052
2017-08-26T09:39:51.351Z,3688
2017-08-26T09:40:31.811Z,3140
2017-08-26T09:41:12.266Z,3772
2017-08-26T09:41:52.717Z,3072
2017-08-26T09:42:33.180Z,3732
2017-08-26T09:43:13.616Z,3680
2017-08-26T09:43:54.052Z,3432
2017-08-26T09:44:34.561Z,3656
2017-08-26T09:45:15.016Z,3648
2017-08-26T09:45:55.461Z,3544
2017-08-26T09:46:35.894Z,3292
2017-08-26T09:47:16.322Z,3596
2017-08-26T09:47:56.706Z,3828
2017-08-26T09:48:37.158Z,3628
2017-08-26T09:49:17.540Z,2228